createdAt,value
2022-09-23T00:00:47.638Z,82.23
2022-09-23T00:03:16.151Z,82.76
2022-09-23T00:05:43.262Z,82.68
2022-09-23T00:08:11.707Z,83.35
2022-09-23T00:10:39.800Z,83.28
2022-09-23T00:13:06.874Z,82.72
2022-09-23T00:15:39.017Z,82.70
2022-09-23T00:18:05.906Z,82.44
2022-09-23T00:20:36.416Z,81.96
2022-09-23T00:23:03.840Z,81.13
2022-09-23T00:25:30.551Z,80.92
2022-09-23T00:27:57.398Z,80.91
2022-09-23T00:30:24.146Z,80.55
2022-09-23T00:32:52.940Z,80.90
2022-09-23T00:35:20.195Z,81.31
2022-09-23T00:37:46.973Z,81.19
2022-09-23T00:40:13.926Z,81.29
2022-09-23T00:42:49.152Z,80.42
2022-09-23T00:45:16.824Z,80.49
2022-09-23T00:48:01.476Z,80.70
2022-09-23T00:50:36.495Z,80.21
2022-09-23T00:53:07.036Z,80.33
2022-09-23T00:55:55.355Z,81.04
2022-09-23T00:58:31.287Z,80.50
2022-09-23T01:01:02.330Z,82.47
2022-09-23T01:03:29.357Z,81.99
2022-09-23T01:05:57.334Z,82.76
2022-09-23T01:08:26.774Z,82.61
2022-09-23T01:11:24.411Z,81.21
2022-09-23T01:13:51.116Z,79.98
2022-09-23T01:16:34.201Z,79.36
2022-09-23T01:19:23.642Z,80.05
2022-09-23T01:22:04.974Z,80.85
2022-09-23T01:25:01.177Z,81.74
2022-09-23T01:27:52.860Z,81.91
2022-09-23T01:30:45.511Z,81.60
2022-09-23T01:33:30.547Z,82.48
2022-09-23T01:36:12.382Z,82.82
2022-09-23T01:38:46.575Z,82.26
2022-09-23T01:41:25.340Z,82.95
2022-09-23T01:44:10.501Z,83.54
2022-09-23T01:46:48.443Z,83.39
2022-09-23T01:49:44.633Z,82.71
2022-09-23T01:52:38.375Z,83.51
2022-09-23T01:55:13.368Z,83.74
2022-09-23T01:58:04.926Z,84.20
2022-09-23T02:00:36.760Z,84.49
2022-09-23T02:03:44.343Z,84.22
2022-09-23T02:06:38.988Z,85.26
2022-09-23T02:09:12.623Z,85.66
2022-09-23T02:11:45.231Z,85.91
2022-09-23T02:14:33.499Z,85.96
2022-09-23T02:17:08.510Z,85.81
2022-09-23T02:19:48.996Z,86.85
2022-09-23T02:22:21.495Z,87.11
2022-09-23T02:24:49.264Z,87.15
2022-09-23T02:27:57.629Z,87.26
2022-09-23T02:30:30.074Z,87.68
2022-09-23T02:33:07.863Z,87.93
2022-09-23T02:36:03.884Z,87.76
2022-09-23T02:38:39.358Z,87.14
2022-09-23T02:41:22.509Z,86.27
2022-09-23T02:43:59.924Z,86.34
2022-09-23T02:46:28.367Z,85.46
2022-09-23T02:49:00.939Z,85.29
2022-09-23T02:51:34.600Z,85.97
2022-09-23T02:54:03.538Z,85.53
2022-09-23T02:56:30.206Z,85.04
2022-09-23T02:58:57.061Z,85.09
2022-09-23T03:01:39.315Z,84.98
2022-09-23T03:04:27.067Z,84.77
2022-09-23T03:07:18.027Z,84.68
2022-09-23T03:10:09.837Z,85.03
2022-09-23T03:12:47.749Z,84.99
2022-09-23T03:15:32.198Z,85.42
2022-09-23T03:18:01.974Z,85.91
2022-09-23T03:20:38.475Z,85.17
2022-09-23T03:23:09.280Z,84.64
2022-09-23T03:25:40.188Z,84.51
2022-09-23T03:28:08.761Z,84.33
2022-09-23T03:30:36.776Z,83.67
2022-09-23T03:33:07.077Z,83.56
2022-09-23T03:35:58.313Z,83.78
2022-09-23T03:38:30.348Z,83.68
2022-09-23T03:41:02.934Z,83.42
2022-09-23T03:43:31.209Z,82.82
2022-09-23T03:45:58.952Z,83.16
2022-09-23T03:48:25.794Z,83.08
2022-09-23T03:50:52.607Z,83.56
2022-09-23T03:53:21.085Z,83.01
2022-09-23T03:55:48.340Z,83.50
2022-09-23T03:58:15.939Z,84.00
2022-09-23T04:00:43.324Z,83.31
2022-09-23T04:03:11.841Z,83.89
2022-09-23T04:05:38.765Z,83.69
2022-09-23T04:08:05.594Z,83.88
2022-09-23T04:10:32.227Z,83.40
2022-09-23T04:12:58.877Z,83.77
2022-09-23T04:15:25.577Z,83.52
2022-09-23T04:17:52.297Z,84.11
2022-09-23T04:20:19.336Z,83.92
2022-09-23T04:22:46.058Z,84.84
2022-09-23T04:25:12.828Z,84.17
2022-09-23T04:27:39.529Z,84.25
2022-09-23T04:30:07.084Z,84.52
2022-09-23T04:32:33.970Z,85.03
2022-09-23T04:35:00.680Z,85.35
2022-09-23T04:37:27.532Z,84.88
2022-09-23T04:39:54.503Z,84.94
2022-09-23T04:42:21.245Z,84.29
2022-09-23T04:44:47.912Z,84.25
2022-09-23T04:47:14.595Z,83.86
2022-09-23T04:49:41.240Z,83.77
2022-09-23T04:52:08.197Z,84.66
2022-09-23T04:54:34.968Z,84.22
2022-09-23T04:57:01.752Z,84.85
2022-09-23T04:59:28.423Z,85.11
2022-09-23T05:01:55.501Z,85.91
2022-09-23T05:04:22.853Z,85.90
2022-09-23T05:06:49.496Z,86.14
2022-09-23T05:09:17.422Z,86.49
2022-09-23T05:11:45.486Z,86.05
2022-09-23T05:14:12.333Z,85.36
2022-09-23T05:16:39.017Z,84.76
2022-09-23T05:19:06.082Z,84.02
2022-09-23T05:21:32.926Z,84.47
2022-09-23T05:24:00.860Z,83.45
2022-09-23T05:26:32.295Z,83.51
2022-09-23T05:28:59.866Z,83.30
2022-09-23T05:31:29.001Z,83.15
2022-09-23T05:33:58.718Z,83.22
2022-09-23T05:36:26.846Z,82.95
2022-09-23T05:38:54.695Z,82.73
2022-09-23T05:41:25.373Z,82.28
2022-09-23T05:43:53.669Z,82.43
2022-09-23T05:46:23.387Z,82.41
2022-09-23T05:48:50.814Z,81.74
2022-09-23T05:51:30.183Z,82.16
2022-09-23T05:54:03.003Z,80.62
2022-09-23T05:56:30.768Z,80.80
2022-09-23T05:58:59.065Z,80.36
2022-09-23T06:01:28.402Z,80.68
2022-09-23T06:03:59.740Z,81.18
2022-09-23T06:06:30.023Z,80.92
2022-09-23T06:08:58.587Z,81.18
2022-09-23T06:11:25.356Z,80.63
2022-09-23T06:13:56.997Z,79.36
2022-09-23T06:16:23.683Z,80.32
2022-09-23T06:18:50.317Z,79.95
2022-09-23T06:21:18.097Z,79.65
2022-09-23T06:23:45.843Z,79.81
2022-09-23T06:26:14.879Z,80.48
2022-09-23T06:28:52.060Z,80.69
2022-09-23T06:31:19.860Z,80.00
2022-09-23T06:33:46.962Z,79.47
2022-09-23T06:36:28.820Z,78.72
2022-09-23T06:39:02.360Z,78.13
2022-09-23T06:41:29.082Z,77.70
2022-09-23T06:43:58.060Z,77.53
2022-09-23T06:46:24.998Z,77.21
2022-09-23T06:48:51.656Z,76.98
2022-09-23T06:51:21.798Z,77.29
2022-09-23T06:53:49.904Z,77.25
2022-09-23T06:56:19.955Z,77.03
2022-09-23T06:58:46.877Z,77.15
2022-09-23T07:01:17.934Z,76.38
2022-09-23T07:03:47.283Z,76.24
2022-09-23T07:06:13.913Z,75.97
2022-09-23T07:08:44.891Z,76.49
2022-09-23T07:11:13.155Z,75.77
2022-09-23T07:13:41.506Z,74.48
2022-09-23T07:16:10.072Z,74.53
2022-09-23T07:18:37.634Z,74.39
2022-09-23T07:21:11.488Z,74.04
2022-09-23T07:23:38.859Z,73.88
2022-09-23T07:26:07.814Z,73.78
2022-09-23T07:28:37.101Z,73.52
2022-09-23T07:31:07.682Z,74.16
2022-09-23T07:33:36.448Z,73.92
2022-09-23T07:36:08.764Z,73.40
2022-09-23T07:38:37.415Z,73.86
2022-09-23T07:41:08.962Z,72.94
2022-09-23T07:43:35.993Z,72.51
2022-09-23T07:46:08.282Z,72.12
2022-09-23T07:48:37.169Z,71.58
2022-09-23T07:51:12.759Z,70.16
2022-09-23T07:53:39.663Z,68.25
2022-09-23T07:56:06.671Z,65.78
2022-09-23T07:58:34.686Z,65.15
2022-09-23T08:01:09.039Z,63.81
2022-09-23T08:03:36.409Z,63.38
2022-09-23T08:06:05.368Z,64.13
2022-09-23T08:08:32.129Z,62.57
2022-09-23T08:11:04.232Z,63.12
2022-09-23T08:13:31.007Z,63.61
2022-09-23T08:15:58.360Z,62.23
2022-09-23T08:18:25.689Z,62.43
2022-09-23T08:20:52.654Z,61.76
2022-09-23T08:23:20.466Z,62.45
2022-09-23T08:25:48.103Z,60.71
2022-09-23T08:28:18.776Z,60.63
2022-09-23T08:30:48.822Z,61.77
2022-09-23T08:33:20.937Z,61.24
2022-09-23T08:35:50.378Z,60.15
2022-09-23T08:38:17.315Z,59.92
2022-09-23T08:40:48.116Z,60.73
2022-09-23T08:43:24.364Z,59.74
2022-09-23T08:45:52.134Z,59.81
2022-09-23T08:48:30.615Z,60.28
2022-09-23T08:51:11.452Z,60.07
2022-09-23T08:53:38.771Z,59.86
2022-09-23T08:56:13.254Z,60.97
2022-09-23T08:59:01.951Z,58.72
2022-09-23T09:01:40.665Z,59.14
2022-09-23T09:04:44.761Z,60.00
2022-09-23T09:07:37.910Z,57.20
2022-09-23T09:10:19.312Z,57.61
2022-09-23T09:13:07.627Z,58.33
2022-09-23T09:15:44.041Z,57.33
2022-09-23T09:18:21.605Z,56.54
2022-09-23T09:20:57.262Z,57.33
2022-09-23T09:23:33.951Z,55.69
2022-09-23T09:26:06.009Z,57.43
2022-09-23T09:28:42.440Z,56.93
2022-09-23T09:31:28.236Z,55.98
2022-09-23T09:34:22.335Z,55.86
2022-09-23T09:37:11.466Z,55.57
2022-09-23T09:39:38.587Z,55.51
2022-09-23T09:42:06.522Z,54.96
2022-09-23T09:44:48.064Z,54.43
2022-09-23T09:47:36.070Z,53.96
2022-09-23T09:50:19.205Z,53.82
2022-09-23T09:52:45.981Z,54.84
2022-09-23T09:55:12.679Z,54.48
2022-09-23T09:57:46.394Z,53.99
2022-09-23T10:00:38.467Z,52.63
2022-09-23T10:03:14.167Z,53.70
2022-09-23T10:05:44.864Z,52.90
2022-09-23T10:08:37.706Z,52.27
2022-09-23T10:11:13.004Z,52.12
2022-09-23T10:13:39.716Z,51.16
2022-09-23T10:16:06.647Z,50.88
2022-09-23T10:18:37.452Z,49.59
2022-09-23T10:21:16.261Z,49.65
2022-09-23T10:23:45.760Z,48.26
2022-09-23T10:26:17.483Z,47.15
2022-09-23T10:28:50.562Z,47.89
2022-09-23T10:31:25.581Z,47.97
2022-09-23T10:34:00.524Z,49.31
2022-09-23T10:36:32.827Z,48.35
2022-09-23T10:39:23.665Z,47.28
2022-09-23T10:42:23.583Z,47.03
2022-09-23T10:45:38.591Z,46.36
2022-09-23T10:48:22.723Z,45.44
2022-09-23T10:50:52.967Z,44.93
2022-09-23T10:53:28.641Z,46.63
2022-09-23T10:56:09.566Z,45.22
2022-09-23T10:59:00.837Z,44.03
2022-09-23T11:01:50.789Z,43.72
2022-09-23T11:04:42.473Z,43.06
2022-09-23T11:07:37.357Z,43.54
2022-09-23T11:10:52.443Z,43.71
2022-09-23T11:13:43.225Z,44.51
2022-09-23T11:16:39.085Z,43.04
2022-09-23T11:19:18.405Z,43.64
2022-09-23T11:22:10.291Z,42.96
2022-09-23T11:25:16.915Z,41.52
2022-09-23T11:28:18.004Z,42.75
2022-09-23T11:31:00.129Z,42.88
2022-09-23T11:33:38.776Z,41.00
2022-09-23T11:36:10.658Z,39.80
2022-09-23T11:38:48.843Z,42.70
2022-09-23T11:41:25.944Z,42.43
2022-09-23T11:44:39.238Z,41.27
2022-09-23T11:47:16.676Z,39.95
2022-09-23T11:49:51.661Z,40.46
2022-09-23T11:52:45.198Z,40.70
2022-09-23T11:55:22.180Z,40.53
2022-09-23T11:58:25.771Z,41.84
2022-09-23T12:01:01.411Z,39.26
2022-09-23T12:03:44.939Z,39.82
2022-09-23T12:06:36.942Z,40.43
2022-09-23T12:09:15.572Z,41.19
2022-09-23T12:12:27.200Z,41.41
2022-09-23T12:14:54.093Z,39.68
2022-09-23T12:17:27.568Z,38.66
2022-09-23T12:20:12.036Z,38.55
2022-09-23T12:22:52.779Z,37.01
2022-09-23T12:25:52.215Z,36.21
2022-09-23T12:28:29.754Z,37.66
2022-09-23T12:31:00.319Z,39.21
2022-09-23T12:33:35.345Z,40.08
2022-09-23T12:36:05.137Z,39.71
2022-09-23T12:38:46.628Z,39.83
2022-09-23T12:41:26.894Z,42.42
2022-09-23T12:43:56.089Z,40.37
2022-09-23T12:46:27.483Z,41.03
2022-09-23T12:49:00.864Z,41.34
2022-09-23T12:51:34.818Z,39.93
2022-09-23T12:54:04.490Z,40.31
2022-09-23T12:56:34.038Z,39.11
2022-09-23T12:59:11.452Z,40.53
2022-09-23T13:01:39.047Z,38.18
2022-09-23T13:04:24.627Z,37.89
2022-09-23T13:07:08.978Z,38.81
2022-09-23T13:09:42.274Z,38.24
2022-09-23T13:12:19.660Z,38.57
2022-09-23T13:14:50.694Z,39.67
2022-09-23T13:17:37.059Z,38.33
2022-09-23T13:20:03.675Z,39.61
2022-09-23T13:22:59.923Z,38.20
2022-09-23T13:25:29.480Z,37.13
2022-09-23T13:28:00.719Z,37.79
2022-09-23T13:30:27.983Z,38.21
2022-09-23T13:33:14.167Z,38.48
2022-09-23T13:35:46.854Z,37.90
2022-09-23T13:38:29.638Z,37.80
2022-09-23T13:41:07.905Z,38.10
2022-09-23T13:43:41.502Z,38.82
2022-09-23T13:46:16.725Z,37.47
2022-09-23T13:48:46.131Z,37.74
2022-09-23T13:51:30.292Z,37.91
2022-09-23T13:53:59.384Z,36.29
2022-09-23T13:56:28.641Z,36.91
2022-09-23T13:59:16.268Z,38.62
2022-09-23T14:01:43.102Z,37.99
2022-09-23T14:04:26.100Z,34.39
2022-09-23T14:06:54.381Z,32.76
2022-09-23T14:09:24.934Z,35.25
2022-09-23T14:11:52.239Z,36.82
2022-09-23T14:14:20.638Z,37.48
2022-09-23T14:16:50.596Z,37.12
2022-09-23T14:19:19.751Z,39.06
2022-09-23T14:21:54.944Z,39.89
2022-09-23T14:24:31.808Z,39.59
2022-09-23T14:27:12.958Z,38.91
2022-09-23T14:29:45.246Z,37.47
2022-09-23T14:32:23.125Z,39.24
2022-09-23T14:35:03.611Z,39.29
2022-09-23T14:37:55.254Z,39.39
2022-09-23T14:40:28.672Z,41.20
2022-09-23T14:42:55.592Z,41.07
2022-09-23T14:45:27.202Z,39.70
2022-09-23T14:47:59.418Z,39.96
2022-09-23T14:50:47.329Z,40.02
2022-09-23T14:53:17.145Z,40.07
2022-09-23T14:55:44.799Z,41.11
2022-09-23T14:58:17.259Z,40.67
2022-09-23T15:01:02.865Z,40.91
2022-09-23T15:03:29.912Z,40.37
2022-09-23T15:06:06.385Z,41.24
2022-09-23T15:08:36.013Z,41.34
2022-09-23T15:11:07.829Z,43.41
2022-09-23T15:13:45.871Z,44.27
2022-09-23T15:16:15.932Z,45.37
2022-09-23T15:18:46.331Z,46.28
2022-09-23T15:21:16.632Z,46.49
2022-09-23T15:23:43.370Z,47.48
2022-09-23T15:26:25.041Z,49.83
2022-09-23T15:28:54.138Z,50.17
2022-09-23T15:31:23.048Z,50.88
2022-09-23T15:33:51.192Z,51.67
2022-09-23T15:36:21.214Z,52.43
2022-09-23T15:38:48.480Z,49.22
2022-09-23T15:41:15.873Z,48.67
2022-09-23T15:43:42.942Z,47.80
2022-09-23T15:46:29.927Z,47.42
2022-09-23T15:49:08.914Z,50.86
2022-09-23T15:51:37.363Z,46.71
2022-09-23T15:54:06.150Z,49.50
2022-09-23T15:56:33.456Z,49.75
2022-09-23T15:59:00.857Z,50.38
2022-09-23T16:01:30.219Z,51.66
2022-09-23T16:03:57.058Z,52.29
2022-09-23T16:06:26.945Z,53.14
2022-09-23T16:08:54.255Z,54.91
2022-09-23T16:11:29.978Z,55.44
2022-09-23T16:13:56.818Z,56.04
2022-09-23T16:16:23.773Z,54.84
2022-09-23T16:18:53.162Z,55.08
2022-09-23T16:21:26.343Z,54.83
2022-09-23T16:23:54.529Z,55.73
2022-09-23T16:26:30.761Z,58.41
2022-09-23T16:28:58.641Z,58.97
2022-09-23T16:31:29.710Z,59.63
2022-09-23T16:33:56.566Z,59.86
2022-09-23T16:36:23.249Z,60.68
2022-09-23T16:38:50.083Z,60.33
2022-09-23T16:41:16.796Z,60.67
2022-09-23T16:43:43.442Z,60.70
2022-09-23T16:46:15.699Z,61.53
2022-09-23T16:48:47.039Z,61.58
2022-09-23T16:51:20.381Z,61.63
2022-09-23T16:53:49.469Z,62.18
2022-09-23T16:56:18.332Z,63.06
2022-09-23T16:58:45.140Z,63.44
2022-09-23T17:01:33.891Z,64.22
2022-09-23T17:04:01.039Z,63.92
2022-09-23T17:06:28.009Z,63.86
2022-09-23T17:08:54.821Z,64.52
2022-09-23T17:11:22.013Z,64.60
2022-09-23T17:13:49.654Z,64.64
2022-09-23T17:16:30.792Z,64.74
2022-09-23T17:18:58.032Z,65.07
2022-09-23T17:21:27.322Z,65.03
2022-09-23T17:23:54.667Z,65.07
2022-09-23T17:26:23.357Z,65.10
2022-09-23T17:28:51.422Z,65.14
2022-09-23T17:31:18.776Z,64.87
2022-09-23T17:33:45.528Z,65.13
2022-09-23T17:36:13.655Z,65.27
2022-09-23T17:38:43.552Z,65.60
2022-09-23T17:41:10.213Z,66.08
2022-09-23T17:43:38.451Z,66.76
2022-09-23T17:46:10.862Z,66.15
2022-09-23T17:48:41.376Z,65.52
2022-09-23T17:51:14.278Z,65.78
2022-09-23T17:53:43.599Z,65.15
2022-09-23T17:56:26.334Z,65.89
2022-09-23T17:58:53.876Z,65.86
2022-09-23T18:01:25.571Z,65.83
2022-09-23T18:04:00.386Z,66.33
2022-09-23T18:06:32.532Z,66.56
2022-09-23T18:09:01.632Z,67.04
2022-09-23T18:11:29.833Z,67.01
2022-09-23T18:14:08.262Z,67.08
2022-09-23T18:16:38.057Z,66.80
2022-09-23T18:19:06.176Z,66.04
2022-09-23T18:21:40.880Z,65.63
2022-09-23T18:26:59.536Z,65.56
2022-09-23T18:29:26.303Z,66.12
2022-09-23T18:31:53.052Z,66.38
2022-09-23T18:34:20.468Z,66.26
2022-09-23T18:36:47.181Z,66.71
2022-09-23T18:39:14.276Z,66.88
2022-09-23T18:41:41.286Z,66.81
2022-09-23T18:44:08.562Z,66.74
2022-09-23T18:46:35.617Z,66.42
2022-09-23T18:49:20.953Z,66.09
2022-09-23T18:51:54.825Z,66.52
2022-09-23T18:54:23.352Z,66.89
2022-09-23T18:56:52.619Z,66.94
2022-09-23T18:59:23.737Z,66.66
2022-09-23T19:01:51.049Z,66.19
2022-09-23T19:04:20.412Z,65.34
2022-09-23T19:06:47.990Z,65.73
2022-09-23T19:09:15.866Z,67.57
2022-09-23T19:11:43.369Z,68.45
2022-09-23T19:14:11.526Z,69.12
2022-09-23T19:16:39.716Z,69.57
2022-09-23T19:19:06.746Z,69.20
2022-09-23T19:21:34.165Z,69.26
2022-09-23T19:24:04.415Z,68.70
2022-09-23T19:26:38.418Z,67.64
2022-09-23T19:29:08.163Z,67.25
2022-09-23T19:31:40.033Z,66.87
2022-09-23T19:34:11.485Z,65.95
2022-09-23T19:36:40.360Z,66.81
2022-09-23T19:39:12.050Z,67.33
2022-09-23T19:41:38.686Z,66.80
2022-09-23T19:44:07.394Z,67.59
2022-09-23T19:46:39.398Z,67.98
2022-09-23T19:49:07.165Z,68.35
2022-09-23T19:51:34.599Z,68.53
2022-09-23T19:54:03.526Z,69.53
2022-09-23T19:56:31.965Z,70.44
2022-09-23T19:58:59.758Z,70.92
2022-09-23T20:01:28.592Z,71.13
2022-09-23T20:03:55.363Z,71.39
2022-09-23T20:06:22.610Z,71.66
2022-09-23T20:08:50.074Z,72.51
2022-09-23T20:11:22.572Z,72.46
2022-09-23T20:13:58.584Z,73.87
2022-09-23T20:16:25.911Z,73.75
2022-09-23T20:18:52.890Z,73.47
2022-09-23T20:21:19.575Z,74.19
2022-09-23T20:23:46.303Z,74.07
2022-09-23T20:26:32.031Z,74.64
2022-09-23T20:29:02.377Z,74.44
2022-09-23T20:31:29.171Z,75.39
2022-09-23T20:33:58.498Z,75.18
2022-09-23T20:36:27.317Z,75.41
2022-09-23T20:38:59.706Z,74.92
2022-09-23T20:41:27.402Z,75.46
2022-09-23T20:43:55.257Z,74.97
2022-09-23T20:46:24.788Z,75.45
2022-09-23T20:48:51.549Z,75.67
2022-09-23T20:51:18.205Z,75.42
2022-09-23T20:53:45.942Z,75.84
2022-09-23T20:56:14.884Z,76.02
2022-09-23T20:58:41.472Z,75.36
2022-09-23T21:01:10.795Z,76.45
2022-09-23T21:03:40.599Z,76.58
2022-09-23T21:06:09.227Z,77.02
2022-09-23T21:08:37.387Z,76.98
2022-09-23T21:11:07.880Z,77.24
2022-09-23T21:13:34.653Z,77.60
2022-09-23T21:16:10.654Z,77.55
2022-09-23T21:18:38.748Z,77.34
2022-09-23T21:21:06.324Z,78.18
2022-09-23T21:23:35.101Z,77.35
2022-09-23T21:26:11.014Z,77.32
2022-09-23T21:28:43.225Z,77.63
2022-09-23T21:31:22.727Z,77.75
2022-09-23T21:33:59.162Z,78.85
2022-09-23T21:36:28.154Z,79.41
2022-09-23T21:38:58.230Z,79.25
2022-09-23T21:41:25.154Z,79.70
2022-09-23T21:43:51.824Z,78.92
2022-09-23T21:46:20.892Z,79.78
2022-09-23T21:48:57.420Z,80.17
2022-09-23T21:51:34.167Z,80.62
2022-09-23T21:54:01.183Z,80.20
2022-09-23T21:56:30.433Z,80.07
2022-09-23T21:58:59.881Z,79.67
2022-09-23T22:01:36.442Z,80.36
2022-09-23T22:04:13.302Z,81.37
2022-09-23T22:06:40.546Z,81.32
2022-09-23T22:09:19.132Z,81.60
2022-09-23T22:12:04.484Z,81.61
2022-09-23T22:14:31.491Z,81.74
2022-09-23T22:17:03.701Z,81.41
2022-09-23T22:19:35.537Z,81.32
2022-09-23T22:22:07.755Z,81.49
2022-09-23T22:24:34.454Z,81.46
2022-09-23T22:27:01.100Z,81.15
2022-09-23T22:29:46.352Z,80.99
2022-09-23T22:32:31.596Z,81.30
2022-09-23T22:34:58.337Z,81.59
2022-09-23T22:37:34.105Z,81.18
2022-09-23T22:40:09.560Z,81.07
2022-09-23T22:42:37.253Z,81.01
2022-09-23T22:45:05.825Z,80.90
2022-09-23T22:47:37.802Z,80.72
2022-09-23T22:50:09.755Z,80.48
2022-09-23T22:52:36.751Z,80.92
2022-09-23T22:55:04.846Z,80.79
2022-09-23T22:57:31.472Z,80.97
2022-09-23T22:59:58.192Z,80.54
2022-09-23T23:02:24.960Z,81.40
2022-09-23T23:04:51.806Z,81.17
2022-09-23T23:07:21.323Z,81.86
2022-09-23T23:09:50.479Z,81.25
2022-09-23T23:12:18.960Z,82.01
2022-09-23T23:14:46.577Z,81.84
2022-09-23T23:17:13.350Z,82.64
2022-09-23T23:19:40.098Z,82.64
2022-09-23T23:22:06.816Z,82.52
2022-09-23T23:24:33.476Z,82.97
2022-09-23T23:27:00.148Z,82.86
2022-09-23T23:29:27.918Z,82.85
2022-09-23T23:31:54.757Z,84.17
2022-09-23T23:34:22.056Z,82.91
2022-09-23T23:36:55.116Z,82.44
2022-09-23T23:39:23.891Z,83.59
2022-09-23T23:41:55.176Z,83.20
2022-09-23T23:44:23.621Z,83.29
2022-09-23T23:46:50.513Z,83.35
2022-09-23T23:49:17.440Z,83.79
2022-09-23T23:51:44.206Z,82.30
2022-09-23T23:54:15.222Z,83.35
2022-09-23T23:56:42.064Z,83.51
2022-09-23T23:59:08.682Z,84.11
